createdAt,value
2023-03-27T00:01:13.000Z,89.78169418896319
2023-03-27T00:03:57.000Z,84.82376149665551
2023-03-27T00:06:41.000Z,80.08139109531773
2023-03-27T00:09:26.000Z,84.82376149665551
2023-03-27T00:12:13.000Z,84.71598035117056
2023-03-27T00:14:57.000Z,95.38631375418059
2023-03-27T00:17:42.000Z,89.45835075250835
2023-03-27T00:20:25.000Z,89.9972564799331
2023-03-27T00:23:09.000Z,84.93154264214046
2023-03-27T00:25:54.000Z,89.45835075250835
2023-03-27T00:28:35.000Z,94.84740802675584
2023-03-27T00:31:17.000Z,94.7396268812709
2023-03-27T00:34:02.000Z,89.9972564799331
2023-03-27T00:36:42.000Z,89.5661318979933
2023-03-27T00:39:26.000Z,94.63184573578593
2023-03-27T00:42:08.000Z,84.71598035117056
2023-03-27T00:44:52.000Z,89.45835075250835
2023-03-27T00:47:34.000Z,95.49409489966554
2023-03-27T00:50:16.000Z,94.63184573578593
2023-03-27T00:53:07.000Z,89.88947533444815
2023-03-27T00:55:52.000Z,84.50041806020066
2023-03-27T00:58:35.000Z,89.88947533444815
2023-03-27T01:01:19.000Z,94.84740802675584
2023-03-27T01:04:06.000Z,89.78169418896319
2023-03-27T01:06:55.000Z,94.84740802675584
2023-03-27T01:09:38.000Z,84.28485576923076
2023-03-27T01:12:24.000Z,89.78169418896319
2023-03-27T01:15:05.000Z,94.7396268812709
2023-03-27T01:17:48.000Z,84.82376149665551
2023-03-27T01:20:34.000Z,94.84740802675584
2023-03-27T01:23:22.000Z,89.88947533444815
2023-03-27T01:26:06.000Z,90.4283810618729
2023-03-27T01:28:56.000Z,84.50041806020066
2023-03-27T01:31:43.000Z,94.41628344481605
2023-03-27T01:34:26.000Z,84.93154264214046
2023-03-27T01:37:14.000Z,79.86582880434781
2023-03-27T01:39:55.000Z,89.67391304347825
2023-03-27T01:42:36.000Z,89.67391304347825
2023-03-27T01:45:17.000Z,89.45835075250835
2023-03-27T01:48:00.000Z,79.65026651337791
2023-03-27T01:50:43.000Z,79.75804765886286
2023-03-27T01:53:26.000Z,85.0393237876254
2023-03-27T01:56:08.000Z,84.93154264214046
2023-03-27T01:58:53.000Z,89.78169418896319
2023-03-27T02:01:37.000Z,84.50041806020066
2023-03-27T02:04:17.000Z,84.50041806020066
2023-03-27T02:06:59.000Z,89.78169418896319
2023-03-27T02:09:43.000Z,89.5661318979933
2023-03-27T02:12:26.000Z,79.97360994983276
2023-03-27T02:15:08.000Z,84.50041806020066
2023-03-27T02:17:52.000Z,84.50041806020066
2023-03-27T02:20:34.000Z,89.45835075250835
2023-03-27T02:23:16.000Z,84.50041806020066
2023-03-27T02:25:59.000Z,80.08139109531773
2023-03-27T02:28:43.000Z,89.5661318979933
2023-03-27T02:31:26.000Z,84.39263691471571
2023-03-27T02:34:12.000Z,79.75804765886286
2023-03-27T02:36:55.000Z,80.62029682274247
2023-03-27T02:39:37.000Z,89.67391304347825
2023-03-27T02:42:26.000Z,89.5661318979933
2023-03-27T02:45:07.000Z,89.67391304347825
2023-03-27T02:47:50.000Z,83.3148254598662
2023-03-27T02:50:33.000Z,84.71598035117056
2023-03-27T02:53:16.000Z,85.0393237876254
2023-03-27T02:55:58.000Z,89.67391304347825
2023-03-27T02:58:41.000Z,85.0393237876254
2023-03-27T03:01:23.000Z,89.5661318979933
2023-03-27T03:04:07.000Z,89.67391304347825
2023-03-27T03:06:52.000Z,84.50041806020066
2023-03-27T03:09:32.000Z,79.75804765886286
2023-03-27T03:12:15.000Z,89.88947533444815
2023-03-27T03:15:00.000Z,84.60819920568561
2023-03-27T03:17:41.000Z,85.2548860785953
2023-03-27T03:20:24.000Z,89.3505696070234
2023-03-27T03:23:05.000Z,84.71598035117056
2023-03-27T03:25:48.000Z,89.5661318979933
2023-03-27T03:28:32.000Z,84.50041806020066
2023-03-27T03:31:15.000Z,77.49464360367891
2023-03-27T03:33:56.000Z,84.60819920568561
2023-03-27T03:36:44.000Z,85.0393237876254
2023-03-27T03:39:25.000Z,84.50041806020066
2023-03-27T03:42:08.000Z,79.65026651337791
2023-03-27T03:44:52.000Z,89.5661318979933
2023-03-27T03:47:33.000Z,78.03354933110366
2023-03-27T03:50:15.000Z,84.39263691471571
2023-03-27T03:52:55.000Z,79.86582880434781
2023-03-27T03:55:36.000Z,89.5661318979933
2023-03-27T03:58:17.000Z,77.60242474916387
2023-03-27T04:00:59.000Z,79.97360994983276
2023-03-27T04:03:41.000Z,85.14710493311036
2023-03-27T04:06:25.000Z,79.65026651337791
2023-03-27T04:09:09.000Z,79.86582880434781
2023-03-27T04:11:52.000Z,84.93154264214046
2023-03-27T04:14:35.000Z,77.60242474916387
2023-03-27T04:17:16.000Z,84.82376149665551
2023-03-27T04:19:58.000Z,77.60242474916387
2023-03-27T04:22:43.000Z,77.49464360367891
2023-03-27T04:25:30.000Z,77.81798704013377
2023-03-27T04:28:11.000Z,79.86582880434781
2023-03-27T04:30:52.000Z,79.75804765886286
2023-03-27T04:33:33.000Z,85.0393237876254
2023-03-27T04:36:14.000Z,77.49464360367891
2023-03-27T04:38:57.000Z,84.39263691471571
2023-03-27T04:41:37.000Z,79.97360994983276
2023-03-27T04:44:21.000Z,85.2548860785953
2023-03-27T04:47:05.000Z,89.67391304347825
2023-03-27T04:49:49.000Z,89.78169418896319
2023-03-27T04:52:31.000Z,79.97360994983276
2023-03-27T04:55:13.000Z,84.60819920568561
2023-03-27T04:57:56.000Z,77.49464360367891
2023-03-27T05:00:37.000Z,79.97360994983276
2023-03-27T05:03:18.000Z,84.50041806020066
2023-03-27T05:06:00.000Z,89.5661318979933
2023-03-27T05:08:45.000Z,85.2548860785953
2023-03-27T05:11:25.000Z,77.60242474916387
2023-03-27T05:14:09.000Z,79.97360994983276
2023-03-27T05:16:51.000Z,84.60819920568561
2023-03-27T05:19:32.000Z,84.60819920568561
2023-03-27T05:22:18.000Z,79.75804765886286
2023-03-27T05:25:00.000Z,77.60242474916387
2023-03-27T05:27:41.000Z,78.89579849498327
2023-03-27T05:30:24.000Z,84.82376149665551
2023-03-27T05:33:08.000Z,79.86582880434781
2023-03-27T05:35:48.000Z,84.60819920568561
2023-03-27T05:38:30.000Z,77.60242474916387
2023-03-27T05:41:13.000Z,75.23123954849498
2023-03-27T05:43:54.000Z,85.14710493311036
2023-03-27T05:46:34.000Z,78.03354933110366
2023-03-27T05:49:18.000Z,84.50041806020066
2023-03-27T05:52:01.000Z,77.92576818561872
2023-03-27T05:54:43.000Z,79.65026651337791
2023-03-27T05:57:23.000Z,79.86582880434781
2023-03-27T06:00:03.000Z,84.39263691471571
2023-03-27T06:02:52.000Z,84.60819920568561
2023-03-27T06:05:34.000Z,84.50041806020066
2023-03-27T06:08:17.000Z,79.86582880434781
2023-03-27T06:10:59.000Z,80.51251567725753
2023-03-27T06:13:42.000Z,80.08139109531773
2023-03-27T06:16:23.000Z,75.23123954849498
2023-03-27T06:19:07.000Z,79.97360994983276
2023-03-27T06:21:53.000Z,75.12345840301003
2023-03-27T06:24:41.000Z,84.39263691471571
2023-03-27T06:27:23.000Z,78.14133047658862
2023-03-27T06:30:07.000Z,79.86582880434781
2023-03-27T06:32:49.000Z,75.77014527591973
2023-03-27T06:35:31.000Z,79.86582880434781
2023-03-27T06:38:13.000Z,75.12345840301003
2023-03-27T06:40:54.000Z,78.03354933110366
2023-03-27T06:43:33.000Z,79.75804765886286
2023-03-27T06:46:14.000Z,84.50041806020066
2023-03-27T06:48:56.000Z,77.60242474916387
2023-03-27T06:51:35.000Z,84.60819920568561
2023-03-27T06:54:18.000Z,75.33902069397992
2023-03-27T06:57:05.000Z,75.33902069397992
2023-03-27T06:59:49.000Z,77.49464360367891
2023-03-27T07:02:33.000Z,79.75804765886286
2023-03-27T07:05:17.000Z,79.86582880434781
2023-03-27T07:07:59.000Z,77.60242474916387
2023-03-27T07:10:40.000Z,75.77014527591973
2023-03-27T07:13:22.000Z,77.60242474916387
2023-03-27T07:16:06.000Z,79.75804765886286
2023-03-27T07:18:45.000Z,85.2548860785953
2023-03-27T07:21:34.000Z,72.86005434782608
2023-03-27T07:24:14.000Z,84.71598035117056
2023-03-27T07:26:54.000Z,79.86582880434781
2023-03-27T07:29:34.000Z,85.2548860785953
2023-03-27T07:32:17.000Z,79.86582880434781
2023-03-27T07:35:00.000Z,80.51251567725753
2023-03-27T07:37:44.000Z,77.38686245819397
2023-03-27T07:40:26.000Z,77.49464360367891
2023-03-27T07:43:08.000Z,75.23123954849498
2023-03-27T07:45:51.000Z,75.23123954849498
2023-03-27T07:48:35.000Z,84.60819920568561
2023-03-27T07:51:16.000Z,79.75804765886286
2023-03-27T07:54:00.000Z,75.33902069397992
2023-03-27T07:56:44.000Z,75.12345840301003
2023-03-27T07:59:24.000Z,75.66236413043478
2023-03-27T08:02:06.000Z,77.71020589464881
2023-03-27T08:04:47.000Z,79.75804765886286
2023-03-27T08:07:33.000Z,80.08139109531773
2023-03-27T08:10:14.000Z,77.38686245819397
2023-03-27T08:12:54.000Z,72.96783549331103
2023-03-27T08:15:34.000Z,77.71020589464881
2023-03-27T08:18:20.000Z,75.23123954849498
2023-03-27T08:21:00.000Z,75.55458298494982
2023-03-27T08:23:42.000Z,79.97360994983276
2023-03-27T08:26:23.000Z,80.18917224080266
2023-03-27T08:29:05.000Z,73.39896007525083
2023-03-27T08:31:47.000Z,80.40473453177256
2023-03-27T08:34:29.000Z,79.97360994983276
2023-03-27T08:37:11.000Z,72.86005434782608
2023-03-27T08:39:55.000Z,77.92576818561872
2023-03-27T08:42:34.000Z,79.86582880434781
2023-03-27T08:45:16.000Z,70.91999372909699
2023-03-27T08:47:56.000Z,77.71020589464881
2023-03-27T08:50:36.000Z,79.97360994983276
2023-03-27T08:53:16.000Z,78.14133047658862
2023-03-27T08:55:58.000Z,72.96783549331103
2023-03-27T08:58:40.000Z,72.75227320234113
2023-03-27T09:01:19.000Z,70.91999372909699
2023-03-27T09:04:00.000Z,79.86582880434781
2023-03-27T09:06:51.000Z,80.08139109531773
2023-03-27T09:09:32.000Z,75.44680183946488
2023-03-27T09:12:14.000Z,73.39896007525083
2023-03-27T09:14:55.000Z,71.02777487458192
2023-03-27T09:17:35.000Z,77.92576818561872
2023-03-27T09:20:17.000Z,72.96783549331103
2023-03-27T09:23:00.000Z,73.29117892976588
2023-03-27T09:25:42.000Z,72.96783549331103
2023-03-27T09:28:26.000Z,77.60242474916387
2023-03-27T09:31:07.000Z,73.18339778428093
2023-03-27T09:33:50.000Z,77.71020589464881
2023-03-27T09:36:33.000Z,75.33902069397992
2023-03-27T09:39:17.000Z,77.71020589464881
2023-03-27T09:41:58.000Z,77.71020589464881
2023-03-27T09:44:42.000Z,72.96783549331103
2023-03-27T09:47:23.000Z,73.29117892976588
2023-03-27T09:50:06.000Z,73.39896007525083
2023-03-27T09:52:48.000Z,70.81221258361204
2023-03-27T09:55:36.000Z,77.60242474916387
2023-03-27T09:58:18.000Z,77.71020589464881
2023-03-27T10:01:07.000Z,77.49464360367891
2023-03-27T10:03:51.000Z,75.33902069397992
2023-03-27T10:06:33.000Z,75.66236413043478
2023-03-27T10:09:16.000Z,79.86582880434781
2023-03-27T10:12:06.000Z,72.96783549331103
2023-03-27T10:14:48.000Z,77.60242474916387
2023-03-27T10:17:30.000Z,77.71020589464881
2023-03-27T10:20:08.000Z,77.71020589464881
2023-03-27T10:22:48.000Z,70.91999372909699
2023-03-27T10:25:29.000Z,70.91999372909699
2023-03-27T10:28:11.000Z,71.13555602006689
2023-03-27T10:30:53.000Z,70.91999372909699
2023-03-27T10:33:34.000Z,77.49464360367891
2023-03-27T10:36:17.000Z,72.75227320234113
2023-03-27T10:38:59.000Z,77.49464360367891
2023-03-27T10:41:44.000Z,73.39896007525083
2023-03-27T10:44:25.000Z,77.92576818561872
2023-03-27T10:47:07.000Z,77.60242474916387
2023-03-27T10:49:48.000Z,71.02777487458192
2023-03-27T10:52:31.000Z,71.56668060200667
2023-03-27T10:55:14.000Z,70.91999372909699
2023-03-27T10:57:56.000Z,75.23123954849498
2023-03-27T11:00:41.000Z,79.86582880434781
2023-03-27T11:03:22.000Z,71.02777487458192
2023-03-27T11:06:04.000Z,70.91999372909699
2023-03-27T11:08:45.000Z,73.07561663879598
2023-03-27T11:11:25.000Z,77.60242474916387
2023-03-27T11:14:08.000Z,78.14133047658862
2023-03-27T11:16:52.000Z,72.86005434782608
2023-03-27T11:19:34.000Z,71.02777487458192
2023-03-27T11:22:22.000Z,72.96783549331103
2023-03-27T11:25:09.000Z,77.60242474916387
2023-03-27T11:27:56.000Z,73.18339778428093
2023-03-27T11:30:37.000Z,79.86582880434781
2023-03-27T11:33:26.000Z,72.96783549331103
2023-03-27T11:36:08.000Z,72.96783549331103
2023-03-27T11:38:51.000Z,73.07561663879598
2023-03-27T11:41:33.000Z,77.49464360367891
2023-03-27T11:44:19.000Z,78.14133047658862
2023-03-27T11:46:59.000Z,75.23123954849498
2023-03-27T11:49:43.000Z,77.49464360367891
2023-03-27T11:52:25.000Z,70.91999372909699
2023-03-27T11:55:07.000Z,72.96783549331103
2023-03-27T11:57:50.000Z,78.14133047658862
2023-03-27T12:00:34.000Z,72.75227320234113
2023-03-27T12:03:14.000Z,75.12345840301003
2023-03-27T12:05:54.000Z,73.07561663879598
2023-03-27T12:08:36.000Z,73.07561663879598
2023-03-27T12:11:17.000Z,80.18917224080266
2023-03-27T12:13:58.000Z,75.23123954849498
2023-03-27T12:16:42.000Z,77.60242474916387
2023-03-27T12:19:25.000Z,77.49464360367891
2023-03-27T12:22:08.000Z,72.96783549331103
2023-03-27T12:24:50.000Z,71.02777487458192
2023-03-27T12:27:42.000Z,72.96783549331103
2023-03-27T12:30:24.000Z,77.17130016722406
2023-03-27T12:33:07.000Z,77.49464360367891
2023-03-27T12:35:46.000Z,77.49464360367891
2023-03-27T12:38:26.000Z,79.21914193143812
2023-03-27T12:41:15.000Z,72.75227320234113
2023-03-27T12:43:56.000Z,78.14133047658862
2023-03-27T12:46:39.000Z,75.23123954849498
2023-03-27T12:49:19.000Z,75.33902069397992
2023-03-27T12:51:59.000Z,71.56668060200667
2023-03-27T12:54:41.000Z,75.33902069397992
2023-03-27T12:57:23.000Z,72.86005434782608
2023-03-27T13:00:07.000Z,75.33902069397992
2023-03-27T13:02:51.000Z,75.23123954849498
2023-03-27T13:05:34.000Z,71.02777487458192
2023-03-27T13:08:22.000Z,77.60242474916387
2023-03-27T13:11:05.000Z,72.96783549331103
2023-03-27T13:13:49.000Z,71.13555602006689
2023-03-27T13:16:32.000Z,75.33902069397992
2023-03-27T13:19:15.000Z,72.86005434782608
2023-03-27T13:21:56.000Z,75.23123954849498
2023-03-27T13:24:40.000Z,77.49464360367891
2023-03-27T13:27:21.000Z,75.33902069397992
2023-03-27T13:30:05.000Z,75.12345840301003
2023-03-27T13:32:49.000Z,77.49464360367891
2023-03-27T13:35:30.000Z,70.91999372909699
2023-03-27T13:38:12.000Z,75.12345840301003
2023-03-27T13:40:55.000Z,75.55458298494982
2023-03-27T13:43:40.000Z,72.96783549331103
2023-03-27T13:46:22.000Z,75.33902069397992
2023-03-27T13:49:06.000Z,70.91999372909699
2023-03-27T13:51:50.000Z,70.91999372909699
2023-03-27T13:54:33.000Z,77.38686245819397
2023-03-27T13:57:13.000Z,80.08139109531773
2023-03-27T13:59:55.000Z,73.39896007525083
2023-03-27T14:02:35.000Z,79.97360994983276
2023-03-27T14:05:18.000Z,73.29117892976588
2023-03-27T14:07:57.000Z,72.42892976588628
2023-03-27T14:10:36.000Z,72.96783549331103
2023-03-27T14:13:17.000Z,77.60242474916387
2023-03-27T14:15:59.000Z,77.60242474916387
2023-03-27T14:18:40.000Z,72.86005434782608
2023-03-27T14:21:20.000Z,71.35111831103679
2023-03-27T14:24:01.000Z,70.91999372909699
2023-03-27T14:26:49.000Z,77.49464360367891
2023-03-27T14:29:32.000Z,77.92576818561872
2023-03-27T14:32:14.000Z,75.23123954849498
2023-03-27T14:34:57.000Z,77.60242474916387
2023-03-27T14:37:37.000Z,72.86005434782608
2023-03-27T14:40:17.000Z,73.07561663879598
2023-03-27T14:42:59.000Z,78.03354933110366
2023-03-27T14:45:43.000Z,70.91999372909699
2023-03-27T14:48:25.000Z,77.38686245819397
2023-03-27T14:51:08.000Z,72.96783549331103
2023-03-27T14:53:49.000Z,77.71020589464881
2023-03-27T14:56:31.000Z,76.74017558528428
2023-03-27T14:59:13.000Z,73.93786580267557
2023-03-27T15:01:55.000Z,79.97360994983276
2023-03-27T15:04:37.000Z,75.12345840301003
2023-03-27T15:07:18.000Z,75.23123954849498
2023-03-27T15:09:59.000Z,75.12345840301003
2023-03-27T15:12:42.000Z,75.23123954849498
2023-03-27T15:15:30.000Z,77.60242474916387
2023-03-27T15:18:12.000Z,80.29695338628763
2023-03-27T15:20:54.000Z,73.29117892976588
2023-03-27T15:23:32.000Z,75.12345840301003
2023-03-27T15:26:13.000Z,79.86582880434781
2023-03-27T15:28:54.000Z,79.86582880434781
2023-03-27T15:31:37.000Z,79.97360994983276
2023-03-27T15:34:17.000Z,72.96783549331103
2023-03-27T15:37:00.000Z,75.23123954849498
2023-03-27T15:39:41.000Z,72.96783549331103
2023-03-27T15:42:27.000Z,74.69233382107024
2023-03-27T15:45:08.000Z,72.86005434782608
2023-03-27T15:47:51.000Z,75.23123954849498
2023-03-27T15:50:32.000Z,75.23123954849498
2023-03-27T15:53:13.000Z,72.86005434782608
2023-03-27T15:55:56.000Z,72.86005434782608
2023-03-27T15:58:37.000Z,78.14133047658862
2023-03-27T16:01:21.000Z,79.97360994983276
2023-03-27T16:04:01.000Z,78.14133047658862
2023-03-27T16:06:42.000Z,78.03354933110366
2023-03-27T16:09:25.000Z,79.86582880434781
2023-03-27T16:12:09.000Z,75.12345840301003
2023-03-27T16:14:51.000Z,75.23123954849498
2023-03-27T16:17:34.000Z,75.01567725752507
2023-03-27T16:20:14.000Z,79.86582880434781
2023-03-27T16:22:55.000Z,75.12345840301003
2023-03-27T16:25:37.000Z,75.23123954849498
2023-03-27T16:28:18.000Z,72.86005434782608
2023-03-27T16:31:00.000Z,79.97360994983276
2023-03-27T16:33:41.000Z,72.64449205685617
2023-03-27T16:36:24.000Z,77.60242474916387
2023-03-27T16:39:05.000Z,73.07561663879598
2023-03-27T16:41:45.000Z,77.60242474916387
2023-03-27T16:44:27.000Z,72.75227320234113
2023-03-27T16:47:10.000Z,77.49464360367891
2023-03-27T16:49:51.000Z,72.86005434782608
2023-03-27T16:52:35.000Z,77.49464360367891
2023-03-27T16:55:19.000Z,73.18339778428093
2023-03-27T16:58:00.000Z,77.60242474916387
2023-03-27T17:00:43.000Z,77.60242474916387
2023-03-27T17:03:25.000Z,79.86582880434781
2023-03-27T17:06:07.000Z,77.49464360367891
2023-03-27T17:08:50.000Z,80.08139109531773
2023-03-27T17:11:32.000Z,77.27908131270902
2023-03-27T17:14:16.000Z,75.12345840301003
2023-03-27T17:16:56.000Z,77.60242474916387
2023-03-27T17:19:37.000Z,70.81221258361204
2023-03-27T17:22:18.000Z,77.60242474916387
2023-03-27T17:24:58.000Z,75.12345840301003
2023-03-27T17:27:40.000Z,77.92576818561872
2023-03-27T17:30:17.000Z,70.81221258361204
2023-03-27T17:32:56.000Z,77.49464360367891
2023-03-27T17:35:36.000Z,71.24333716555182
2023-03-27T17:38:16.000Z,71.02777487458192
2023-03-27T17:40:54.000Z,72.86005434782608
2023-03-27T17:43:35.000Z,72.86005434782608
2023-03-27T17:46:17.000Z,73.18339778428093
2023-03-27T17:48:57.000Z,72.96783549331103
2023-03-27T17:51:39.000Z,71.02777487458192
2023-03-27T17:54:19.000Z,75.23123954849498
2023-03-27T17:57:00.000Z,72.75227320234113
2023-03-27T17:59:42.000Z,70.81221258361204
2023-03-27T18:02:22.000Z,72.86005434782608
2023-03-27T18:05:11.000Z,75.01567725752507
2023-03-27T18:07:56.000Z,77.49464360367891
2023-03-27T18:10:36.000Z,77.71020589464881
2023-03-27T18:13:17.000Z,71.02777487458192
2023-03-27T18:16:01.000Z,70.81221258361204
2023-03-27T18:18:40.000Z,73.29117892976588
2023-03-27T18:21:21.000Z,75.12345840301003
2023-03-27T18:23:59.000Z,71.02777487458192
2023-03-27T18:26:41.000Z,77.38686245819397
2023-03-27T18:29:21.000Z,77.60242474916387
2023-03-27T18:32:01.000Z,77.60242474916387
2023-03-27T18:34:43.000Z,72.86005434782608
2023-03-27T18:37:25.000Z,77.49464360367891
2023-03-27T18:40:08.000Z,77.60242474916387
2023-03-27T18:42:52.000Z,70.91999372909699
2023-03-27T18:45:32.000Z,71.35111831103679
2023-03-27T18:48:10.000Z,75.44680183946488
2023-03-27T18:50:51.000Z,76.09348871237457
2023-03-27T18:53:33.000Z,75.23123954849498
2023-03-27T18:56:14.000Z,73.39896007525083
2023-03-27T18:58:55.000Z,77.60242474916387
2023-03-27T19:01:34.000Z,77.38686245819397
2023-03-27T19:04:15.000Z,72.75227320234113
2023-03-27T19:06:56.000Z,79.86582880434781
2023-03-27T19:09:36.000Z,77.38686245819397
2023-03-27T19:12:17.000Z,71.02777487458192
2023-03-27T19:14:58.000Z,75.23123954849498
2023-03-27T19:17:42.000Z,75.12345840301003
2023-03-27T19:20:26.000Z,72.86005434782608
2023-03-27T19:23:06.000Z,72.64449205685617
2023-03-27T19:25:47.000Z,72.75227320234113
2023-03-27T19:28:30.000Z,77.49464360367891
2023-03-27T19:31:11.000Z,77.38686245819397
2023-03-27T19:33:51.000Z,75.44680183946488
2023-03-27T19:36:33.000Z,72.75227320234113
2023-03-27T19:39:13.000Z,77.38686245819397
2023-03-27T19:41:57.000Z,72.75227320234113
2023-03-27T19:44:38.000Z,79.86582880434781
2023-03-27T19:47:18.000Z,75.12345840301003
2023-03-27T19:50:00.000Z,77.38686245819397
2023-03-27T19:52:42.000Z,75.01567725752507
2023-03-27T19:55:25.000Z,75.12345840301003
2023-03-27T19:58:06.000Z,72.96783549331103
2023-03-27T20:00:49.000Z,72.75227320234113
2023-03-27T20:03:33.000Z,72.86005434782608
2023-03-27T20:06:14.000Z,75.55458298494982
2023-03-27T20:08:56.000Z,77.49464360367891
2023-03-27T20:11:37.000Z,72.86005434782608
2023-03-27T20:14:19.000Z,77.60242474916387
2023-03-27T20:16:59.000Z,75.12345840301003
2023-03-27T20:19:41.000Z,72.75227320234113
2023-03-27T20:22:24.000Z,72.86005434782608
2023-03-27T20:25:07.000Z,79.86582880434781
2023-03-27T20:27:47.000Z,74.90789611204013
2023-03-27T20:30:29.000Z,72.86005434782608
2023-03-27T20:33:12.000Z,79.75804765886286
2023-03-27T20:35:53.000Z,77.60242474916387
2023-03-27T20:38:36.000Z,70.81221258361204
2023-03-27T20:41:17.000Z,78.03354933110366
2023-03-27T20:44:05.000Z,77.27908131270902
2023-03-27T20:46:48.000Z,73.18339778428093
2023-03-27T20:49:29.000Z,75.12345840301003
2023-03-27T20:52:09.000Z,75.01567725752507
2023-03-27T20:54:53.000Z,77.49464360367891
2023-03-27T20:57:34.000Z,77.92576818561872
2023-03-27T21:00:14.000Z,75.23123954849498
2023-03-27T21:02:53.000Z,71.02777487458192
2023-03-27T21:05:32.000Z,77.38686245819397
2023-03-27T21:08:13.000Z,73.18339778428093
2023-03-27T21:10:54.000Z,75.55458298494982
2023-03-27T21:13:35.000Z,72.86005434782608
2023-03-27T21:16:15.000Z,72.86005434782608
2023-03-27T21:18:59.000Z,72.86005434782608
2023-03-27T21:21:41.000Z,77.60242474916387
2023-03-27T21:24:20.000Z,75.23123954849498
2023-03-27T21:27:00.000Z,71.24333716555182
2023-03-27T21:29:42.000Z,73.07561663879598
2023-03-27T21:32:24.000Z,72.86005434782608
2023-03-27T21:35:06.000Z,72.86005434782608
2023-03-27T21:37:47.000Z,72.86005434782608
2023-03-27T21:40:30.000Z,73.72230351170568
2023-03-27T21:43:12.000Z,73.18339778428093
2023-03-27T21:45:53.000Z,77.60242474916387
2023-03-27T21:48:34.000Z,71.35111831103679
2023-03-27T21:51:15.000Z,77.60242474916387
2023-03-27T21:53:58.000Z,70.91999372909699
2023-03-27T21:56:36.000Z,75.12345840301003
2023-03-27T21:59:18.000Z,71.67446174749163
2023-03-27T22:01:59.000Z,79.86582880434781
2023-03-27T22:04:41.000Z,77.49464360367891
2023-03-27T22:07:24.000Z,77.92576818561872
2023-03-27T22:10:06.000Z,77.60242474916387
2023-03-27T22:12:47.000Z,78.14133047658862
2023-03-27T22:15:31.000Z,72.96783549331103
2023-03-27T22:18:13.000Z,77.60242474916387
2023-03-27T22:20:53.000Z,70.91999372909699
2023-03-27T22:23:33.000Z,77.49464360367891
2023-03-27T22:26:15.000Z,73.39896007525083
2023-03-27T22:28:56.000Z,70.91999372909699
2023-03-27T22:32:22.000Z,75.44680183946488
2023-03-27T22:35:23.000Z,75.01567725752507
2023-03-27T22:38:05.000Z,70.91999372909699
2023-03-27T22:40:47.000Z,72.86005434782608
2023-03-27T22:43:29.000Z,72.75227320234113
2023-03-27T22:46:12.000Z,70.91999372909699
2023-03-27T22:48:53.000Z,77.92576818561872
2023-03-27T22:51:33.000Z,70.70443143812707
2023-03-27T22:54:15.000Z,75.12345840301003
2023-03-27T22:56:56.000Z,72.86005434782608
2023-03-27T22:59:38.000Z,70.81221258361204
2023-03-27T23:02:20.000Z,72.86005434782608
2023-03-27T23:05:00.000Z,75.01567725752507
2023-03-27T23:07:46.000Z,70.91999372909699
2023-03-27T23:10:26.000Z,77.49464360367891
2023-03-27T23:13:09.000Z,71.02777487458192
2023-03-27T23:15:50.000Z,72.75227320234113
2023-03-27T23:18:30.000Z,75.23123954849498
2023-03-27T23:21:11.000Z,73.18339778428093
2023-03-27T23:23:53.000Z,77.60242474916387
2023-03-27T23:26:32.000Z,75.23123954849498
2023-03-27T23:29:14.000Z,72.86005434782608
2023-03-27T23:31:56.000Z,72.75227320234113
2023-03-27T23:34:36.000Z,71.24333716555182
2023-03-27T23:37:27.000Z,75.55458298494982
2023-03-27T23:40:08.000Z,70.91999372909699
2023-03-27T23:42:50.000Z,70.91999372909699
2023-03-27T23:45:32.000Z,75.23123954849498
2023-03-27T23:48:14.000Z,70.81221258361204
2023-03-27T23:50:56.000Z,77.49464360367891
2023-03-27T23:53:38.000Z,75.23123954849498
2023-03-27T23:56:20.000Z,71.24333716555182
2023-03-27T23:59:00.000Z,75.01567725752507
